Time;durP1;ratioP1;P1;durP2;ratioP2;P2;SDS_P1;SDS_P2;PMS_P1;PMS_P2;Temp;Humidity;BMP_temperature;BMP_pressure;BME280_temperature;BME280_humidity;BME280_pressure;Samples;Min_cycle;Max_cycle;Signal;HPM_P1;HPM_P2
2022/09/10 00:01:10;;;;;;;6.03;2.03;;;;;;;7.34;100.00;98952.94;5172805;27;20046;-49
2022/09/10 00:03:36;;;;;;;4.00;2.00;;;;;;;7.25;100.00;98961.25;5172427;27;20047;-50
2022/09/10 00:06:04;;;;;;;3.42;2.00;;;;;;;7.34;100.00;98964.63;5172505;27;20094;-50
2022/09/10 00:08:32;;;;;;;4.25;2.38;;;;;;;7.21;100.00;98966.63;5172273;27;20079;-49
2022/09/10 00:11:04;;;;;;;2.22;2.00;;;;;;;7.40;100.00;98948.81;5172303;27;20046;-49
2022/09/10 00:13:30;;;;;;;5.57;2.25;;;;;;;7.21;100.00;98939.34;5172497;27;20103;-49
2022/09/10 00:15:58;;;;;;;2.50;1.83;;;;;;;7.30;100.00;98961.03;5172217;27;20497;-51
2022/09/10 00:18:24;;;;;;;4.28;2.05;;;;;;;7.20;100.00;98975.16;5172398;27;20082;-50
2022/09/10 00:20:53;;;;;;;3.50;2.05;;;;;;;7.44;100.00;98950.50;5172170;27;20137;-49
2022/09/10 00:23:22;;;;;;;3.42;2.03;;;;;;;7.44;100.00;98946.97;5172292;27;20061;-50
2022/09/10 00:25:50;;;;;;;4.13;2.22;;;;;;;7.17;100.00;98960.28;5172436;27;20054;-52
2022/09/10 00:28:17;;;;;;;4.20;1.85;;;;;;;7.37;100.00;98965.88;5172215;27;20080;-49
2022/09/10 00:30:45;;;;;;;3.97;2.10;;;;;;;7.24;100.00;98968.66;5172137;27;20452;-49
2022/09/10 00:33:13;;;;;;;4.55;2.20;;;;;;;7.19;100.00;98976.28;5172134;27;20053;-50
2022/09/10 00:35:40;;;;;;;2.67;1.85;;;;;;;7.22;100.00;98979.09;5171995;27;20398;-49
2022/09/10 00:38:07;;;;;;;5.45;2.30;;;;;;;7.44;100.00;98953.22;5171736;27;20050;-49
2022/09/10 00:40:34;;;;;;;3.42;2.00;;;;;;;7.40;100.00;98948.81;5172041;27;20046;-50
2022/09/10 00:43:00;;;;;;;9.70;3.03;;;;;;;7.36;100.00;98943.25;5171824;27;20057;-50
2022/09/10 00:45:28;;;;;;;5.15;2.03;;;;;;;7.34;100.00;98951.00;5172218;27;20454;-48
2022/09/10 00:47:57;;;;;;;4.95;1.80;;;;;;;7.09;100.00;98950.31;5171962;27;20058;-50
2022/09/10 00:50:27;;;;;;;3.47;2.00;;;;;;;7.23;100.00;98964.34;5172170;27;20050;-49
2022/09/10 00:52:59;;;;;;;4.03;2.00;;;;;;;7.01;100.00;98982.03;5172115;27;20157;-49
2022/09/10 00:55:27;;;;;;;4.85;2.00;;;;;;;7.03;100.00;98968.03;5171846;27;20042;-49
2022/09/10 00:57:59;;;;;;;4.75;2.50;;;;;;;7.14;100.00;98990.97;5171622;27;20054;-49
2022/09/10 01:00:25;;;;;;;7.47;2.10;;;;;;;6.95;100.00;98994.31;5172156;27;20493;-48
2022/09/10 01:02:51;;;;;;;9.80;2.80;;;;;;;6.94;100.00;99013.75;5175300;27;20046;-49
2022/09/10 01:05:18;;;;;;;7.22;2.10;;;;;;;6.92;100.00;99024.97;5175272;27;20054;-49
2022/09/10 01:07:47;;;;;;;3.38;1.98;;;;;;;7.00;100.00;99010.44;5175433;27;20069;-51
2022/09/10 01:10:17;;;;;;;6.05;2.20;;;;;;;6.95;100.00;98979.88;5175388;27;20421;-48
2022/09/10 01:13:20;;;;;;;11.10;2.42;;;;;;;7.02;100.00;98991.00;5175261;27;20053;-49
2022/09/10 01:15:54;;;;;;;6.03;2.40;;;;;;;6.87;100.00;98961.75;5175068;27;20512;-49
2022/09/10 01:18:32;;;;;;;7.50;2.35;;;;;;;6.90;100.00;98999.19;5175250;27;20062;-49
2022/09/10 01:21:09;;;;;;;3.30;1.85;;;;;;;6.95;100.00;98972.50;5175091;27;20050;-49
2022/09/10 01:24:06;;;;;;;3.92;2.25;;;;;;;7.02;100.00;98961.78;5175015;27;20057;-49
2022/09/10 01:27:00;;;;;;;3.45;2.22;;;;;;;7.05;100.00;98954.88;5175005;27;20065;-50
2022/09/10 01:29:36;;;;;;;8.40;2.10;;;;;;;6.99;100.00;98937.94;5174799;27;20077;-48
2022/09/10 01:32:07;;;;;;;5.43;2.30;;;;;;;6.86;100.00;98957.41;5174693;27;20042;-49
2022/09/10 01:34:40;;;;;;;4.28;2.17;;;;;;;6.94;100.00;98972.84;5175315;27;20050;-49
2022/09/10 01:37:13;;;;;;;4.83;2.37;;;;;;;6.82;100.00;98966.28;5174904;27;20057;-49
2022/09/10 01:39:41;;;;;;;16.90;2.35;;;;;;;6.82;100.00;98951.88;5174915;27;20074;-50
2022/09/10 01:42:07;;;;;;;2.65;1.65;;;;;;;6.96;100.00;98971.34;5174743;27;20093;-50
2022/09/10 01:44:42;;;;;;;6.10;2.15;;;;;;;6.89;100.00;98954.81;5174877;27;20050;-50
2022/09/10 01:47:16;;;;;;;6.55;2.17;;;;;;;6.81;100.00;98972.09;5174848;27;20046;-50
2022/09/10 01:49:57;;;;;;;3.63;2.50;;;;;;;6.77;100.00;98952.91;5174864;27;20054;-49
2022/09/10 01:52:32;;;;;;;3.88;2.28;;;;;;;6.84;100.00;98944.94;5174624;27;20476;-53
2022/09/10 01:55:11;;;;;;;3.30;2.08;;;;;;;6.92;100.00;98936.97;5174295;27;20050;-49
2022/09/10 01:57:51;;;;;;;7.70;2.33;;;;;;;6.84;100.00;98933.25;5174380;27;20053;-49
2022/09/10 02:00:20;;;;;;;3.03;1.98;;;;;;;6.87;100.00;98934.50;5174301;27;20046;-50
2022/09/10 02:02:51;;;;;;;4.32;2.30;;;;;;;6.77;100.00;98933.84;5174663;27;20053;-49
2022/09/10 02:05:21;;;;;;;3.85;1.95;;;;;;;6.82;100.00;98935.53;5174397;27;20500;-50
2022/09/10 02:07:51;;;;;;;4.07;2.08;;;;;;;6.72;100.00;98938.72;5174811;27;20057;-49
2022/09/10 02:10:17;;;;;;;2.58;1.80;;;;;;;6.90;100.00;98925.59;5174347;27;20061;-52
2022/09/10 02:12:44;;;;;;;2.97;2.03;;;;;;;6.48;100.00;98945.81;5174072;27;20046;-49
2022/09/10 02:15:11;;;;;;;3.10;1.90;;;;;;;6.58;100.00;98961.69;5174249;27;20042;-49
2022/09/10 02:17:39;;;;;;;4.55;2.35;;;;;;;6.58;100.00;98961.69;5174117;27;20054;-49
2022/09/10 02:20:09;;;;;;;3.90;2.35;;;;;;;6.40;100.00;98973.16;5174053;27;20413;-49
2022/09/10 02:22:38;;;;;;;7.82;2.90;;;;;;;6.62;100.00;98999.13;5173977;27;20102;-50
2022/09/10 02:25:06;;;;;;;7.80;2.20;;;;;;;6.59;100.00;98987.00;5173967;27;20497;-49
2022/09/10 02:27:32;;;;;;;5.53;2.90;;;;;;;6.52;100.00;98971.22;5174163;27;20057;-51
2022/09/10 02:29:58;;;;;;;5.43;2.67;;;;;;;6.56;100.00;98968.59;5173811;27;20054;-51
2022/09/10 02:32:24;;;;;;;8.27;2.97;;;;;;;6.31;100.00;98976.00;5173832;27;20054;-48
2022/09/10 02:34:51;;;;;;;10.02;3.05;;;;;;;6.59;100.00;98992.44;5174228;27;20485;-49
2022/09/10 02:37:19;;;;;;;5.28;3.28;;;;;;;6.37;100.00;98991.00;5173743;27;20050;-48
2022/09/10 02:39:45;;;;;;;4.97;2.55;;;;;;;6.29;100.00;98991.88;5173827;27;20080;-50
2022/09/10 02:42:16;;;;;;;11.57;3.30;;;;;;;6.22;100.00;99027.84;5173870;27;20062;-50
2022/09/10 02:44:43;;;;;;;8.55;3.20;;;;;;;6.28;100.00;99042.81;5173650;27;20061;-49
2022/09/10 02:47:10;;;;;;;8.18;3.45;;;;;;;6.21;100.00;99047.25;5173711;27;20054;-50
2022/09/10 02:49:36;;;;;;;8.98;3.53;;;;;;;6.23;100.00;99064.00;5173798;27;20107;-51
2022/09/10 02:52:03;;;;;;;7.25;3.45;;;;;;;6.08;100.00;99014.56;5173878;27;20469;-48
2022/09/10 02:54:30;;;;;;;8.52;3.85;;;;;;;6.09;100.00;99067.84;5173351;27;20046;-48
2022/09/10 02:56:56;;;;;;;7.18;3.42;;;;;;;6.07;100.00;99086.47;5173472;27;20137;-49
2022/09/10 02:59:22;;;;;;;5.95;2.70;;;;;;;6.00;100.00;99083.50;5173345;27;20086;-50
2022/09/10 03:01:48;;;;;;;5.35;3.15;;;;;;;5.81;100.00;99094.84;5173674;27;20046;-49
2022/09/10 03:04:16;;;;;;;10.60;2.83;;;;;;;5.89;100.00;99132.03;5173421;27;20050;-48
2022/09/10 03:06:42;;;;;;;4.45;2.88;;;;;;;5.65;100.00;99132.75;5173441;27;20561;-48
2022/09/10 03:09:10;;;;;;;3.08;2.17;;;;;;;5.85;100.00;99163.00;5173407;27;20432;-51
2022/09/10 03:11:38;;;;;;;2.95;2.13;;;;;;;5.83;100.00;99162.50;5173291;27;20046;-48
2022/09/10 03:14:05;;;;;;;4.03;2.67;;;;;;;5.86;100.00;99145.53;5173379;27;20083;-49
2022/09/10 03:16:31;;;;;;;5.15;2.30;;;;;;;5.71;100.00;99203.28;5172980;27;20686;-49
2022/09/10 03:18:57;;;;;;;4.40;1.95;;;;;;;5.81;100.00;99195.50;5173315;27;20059;-48
2022/09/10 03:21:24;;;;;;;4.65;2.15;;;;;;;5.88;100.00;99159.59;5173105;27;20057;-49
2022/09/10 03:23:52;;;;;;;5.20;2.40;;;;;;;6.00;100.00;99143.38;5172273;27;20497;-49
2022/09/10 03:26:20;;;;;;;7.22;2.47;;;;;;;5.89;100.00;99115.72;5173044;27;20050;-51
2022/09/10 03:28:47;;;;;;;2.00;1.90;;;;;;;5.54;100.00;99145.16;5173282;27;20046;-49
2022/09/10 03:31:13;;;;;;;4.60;1.95;;;;;;;5.66;100.00;99201.53;5172974;27;20115;-49
2022/09/10 03:33:40;;;;;;;3.80;2.30;;;;;;;5.66;100.00;99236.88;5173122;27;20049;-50
2022/09/10 03:36:07;;;;;;;9.00;2.30;;;;;;;5.54;100.00;99262.09;5173083;27;20493;-49
2022/09/10 03:38:33;;;;;;;2.17;1.90;;;;;;;5.57;100.00;99280.47;5172740;27;20054;-51
2022/09/10 03:41:00;;;;;;;3.25;2.33;;;;;;;5.58;100.00;99290.22;5172963;27;20046;-50
2022/09/10 03:43:27;;;;;;;3.53;2.05;;;;;;;5.50;100.00;99310.09;5172529;27;20634;-49
2022/09/10 03:45:54;;;;;;;2.47;2.08;;;;;;;5.51;100.00;99319.06;5172897;27;20413;-50
2022/09/10 03:48:21;;;;;;;8.27;2.05;;;;;;;5.60;100.00;99319.81;5172604;27;20509;-49
2022/09/10 03:50:49;;;;;;;4.32;2.20;;;;;;;5.73;100.00;99277.16;5172453;27;20046;-49
2022/09/10 03:53:17;;;;;;;3.83;2.08;;;;;;;5.62;100.00;99260.44;5172557;27;20053;-50
2022/09/10 03:55:44;;;;;;;3.90;2.33;;;;;;;5.34;100.00;99277.22;5172499;27;20046;-49
2022/09/10 03:58:10;;;;;;;6.05;2.30;;;;;;;5.48;100.00;99284.34;5172407;27;20065;-49
2022/09/10 04:00:37;;;;;;;10.40;2.33;;;;;;;5.63;100.00;99278.34;5172769;27;20061;-49
2022/09/10 04:03:04;;;;;;;4.20;2.35;;;;;;;5.48;100.00;99285.16;5172572;27;20050;-49
2022/09/10 04:05:31;;;;;;;2.45;1.98;;;;;;;5.39;100.00;99301.50;5172342;27;20080;-48
2022/09/10 04:07:58;;;;;;;3.15;2.08;;;;;;;5.51;100.00;99308.97;5172597;27;20050;-49
2022/09/10 04:10:24;;;;;;;5.22;2.40;;;;;;;6.04;100.00;99274.13;5172333;27;20471;-51
2022/09/10 04:12:52;;;;;;;3.85;2.03;;;;;;;6.71;100.00;99123.19;5172478;27;20042;-48
2022/09/10 04:15:18;;;;;;;5.78;2.00;;;;;;;7.13;100.00;98964.84;5172142;27;20142;-49
2022/09/10 04:17:47;;;;;;;3.55;2.10;;;;;;;7.22;100.00;98880.94;5172459;27;20046;-51
2022/09/10 04:20:13;;;;;;;2.22;1.90;;;;;;;7.77;100.00;98805.56;5172206;27;20042;-48
2022/09/10 04:22:39;;;;;;;5.68;2.28;;;;;;;8.36;100.00;98764.69;5172127;27;20043;-51
2022/09/10 04:25:07;;;;;;;4.70;1.60;;;;;;;8.78;100.00;98770.22;5172125;27;20073;-50
2022/09/10 04:27:33;;;;;;;2.10;1.60;;;;;;;8.60;100.00;98804.63;5172412;27;20122;-53
2022/09/10 04:29:59;;;;;;;3.45;1.83;;;;;;;9.25;100.00;98836.69;5172188;27;20466;-49
2022/09/10 04:32:26;;;;;;;5.15;1.73;;;;;;;9.63;100.00;98860.41;5172160;27;20050;-51
2022/09/10 04:34:53;;;;;;;2.85;1.90;;;;;;;9.24;100.00;98884.34;5173496;27;20046;-51
2022/09/10 04:37:20;;;;;;;3.97;1.83;;;;;;;9.25;100.00;98883.19;5175682;27;20144;-52
2022/09/10 04:39:46;;;;;;;2.67;1.63;;;;;;;9.86;100.00;98893.22;5175674;27;20046;-49
2022/09/10 04:42:19;;;;;;;5.97;1.92;;;;;;;10.12;100.00;98982.84;5175814;27;20053;-50
2022/09/10 04:44:45;;;;;;;2.75;1.55;;;;;;;9.93;100.00;98971.97;5175677;27;20046;-50
2022/09/10 04:47:11;;;;;;;4.25;1.90;;;;;;;10.49;100.00;98958.41;5175448;27;20081;-50
2022/09/10 04:49:38;;;;;;;3.03;2.00;;;;;;;10.76;100.00;99018.72;5175431;27;20050;-51
2022/09/10 04:52:04;;;;;;;3.33;1.90;;;;;;;10.38;100.00;99014.22;5175455;27;20046;-50
2022/09/10 04:54:32;;;;;;;3.13;1.67;;;;;;;11.05;100.00;99045.41;5175738;27;20508;-49
2022/09/10 04:56:58;;;;;;;4.00;1.85;;;;;;;10.78;100.00;99049.31;5175239;27;20417;-50
2022/09/10 04:59:25;;;;;;;3.67;1.60;;;;;;;10.99;100.00;99093.50;5175287;27;20050;-50
2022/09/10 05:01:51;;;;;;;2.10;1.88;;;;;;;11.08;100.00;99061.13;5175454;27;20057;-51
2022/09/10 05:04:17;;;;;;;3.20;1.73;;;;;;;11.36;100.00;99097.56;5175260;27;20050;-52
2022/09/10 05:06:43;;;;;;;3.60;1.65;;;;;;;11.69;100.00;99105.81;5175495;27;20580;-52
2022/09/10 05:09:10;;;;;;;3.17;1.73;;;;;;;11.15;100.00;99131.75;5175101;27;20096;-50
2022/09/10 05:11:37;;;;;;;6.03;1.77;;;;;;;11.88;100.00;99096.66;5175293;27;20050;-50
2022/09/10 05:14:03;;;;;;;2.30;1.63;;;;;;;11.98;100.00;99155.66;5175180;27;20050;-50
2022/09/10 05:16:29;;;;;;;5.60;1.80;;;;;;;11.79;100.00;99156.56;5174941;27;20055;-52
2022/09/10 05:18:55;;;;;;;1.98;1.42;;;;;;;11.36;100.00;99120.28;5175100;27;20046;-53
2022/09/10 05:21:22;;;;;;;3.72;2.00;;;;;;;11.72;100.00;99063.09;5175471;27;20046;-49
2022/09/10 05:23:48;;;;;;;2.85;1.73;;;;;;;12.32;100.00;99112.44;5175389;27;20439;-52
2022/09/10 05:26:15;;;;;;;2.53;1.90;;;;;;;12.55;100.00;99134.25;5175340;27;20050;-51
2022/09/10 05:28:41;;;;;;;4.63;1.90;;;;;;;12.50;100.00;99153.09;5175294;27;20054;-52
2022/09/10 05:31:08;;;;;;;2.85;1.60;;;;;;;12.46;100.00;99186.84;5174929;27;20058;-52
2022/09/10 05:33:34;;;;;;;3.67;1.80;;;;;;;13.23;100.00;99158.78;5174968;27;20401;-50
2022/09/10 05:36:01;;;;;;;4.20;1.77;;;;;;;13.39;100.00;99189.59;5174741;27;20528;-50
2022/09/10 05:38:27;;;;;;;3.38;1.73;;;;;;;13.10;100.00;99200.41;5174795;27;20054;-50
2022/09/10 05:40:53;;;;;;;3.58;1.80;;;;;;;14.20;100.00;99226.28;5174878;27;20054;-50
2022/09/10 05:43:20;;;;;;;3.25;2.30;;;;;;;14.82;100.00;99248.16;5174589;27;20050;-49
2022/09/10 05:45:46;;;;;;;9.13;2.00;;;;;;;14.28;100.00;99267.28;5174483;27;20053;-51
2022/09/10 05:48:12;;;;;;;5.30;1.77;;;;;;;13.89;100.00;99221.03;5174605;27;20053;-50
2022/09/10 05:50:39;;;;;;;3.35;1.80;;;;;;;14.81;100.00;99265.91;5174599;27;20042;-49
2022/09/10 05:53:05;;;;;;;2.47;2.28;;;;;;;15.16;100.00;99250.56;5174984;27;20042;-51
2022/09/10 05:55:32;;;;;;;6.38;1.73;;;;;;;14.12;100.00;99286.09;5174838;27;20512;-50
2022/09/10 05:57:58;;;;;;;6.35;2.50;;;;;;;14.63;100.00;99246.56;5174464;27;20077;-51
2022/09/10 06:00:25;;;;;;;3.95;2.40;;;;;;;15.31;100.00;99290.84;5174509;27;20481;-51
2022/09/10 06:02:51;;;;;;;5.28;2.05;;;;;;;15.38;100.00;99271.50;5174390;27;20062;-50
2022/09/10 06:05:21;;;;;;;4.45;1.80;;;;;;;15.28;100.00;99314.50;5174606;27;20140;-53
2022/09/10 06:07:48;;;;;;;4.75;1.35;;;;;;;14.92;100.00;99271.44;5174531;27;20057;-53
2022/09/10 06:10:14;;;;;;;3.42;2.25;;;;;;;16.18;100.00;99282.09;5174458;27;20042;-50
2022/09/10 06:12:45;;;;;;;5.18;1.90;;;;;;;14.35;100.00;99258.25;5174353;27;20042;-50
2022/09/10 06:15:11;;;;;;;4.30;2.40;;;;;;;15.69;100.00;99260.84;5174669;27;20058;-50
2022/09/10 06:17:39;;;;;;;2.80;1.90;;;;;;;15.43;100.00;99282.19;5174255;27;20051;-50
2022/09/10 06:20:05;;;;;;;3.72;2.08;;;;;;;15.41;100.00;99290.06;5174447;27;20050;-50
2022/09/10 06:22:34;;;;;;;3.55;1.88;;;;;;;15.87;100.00;99277.44;5174303;27;20046;-51
2022/09/10 06:25:00;;;;;;;7.88;1.95;;;;;;;15.61;100.00;99307.03;5174036;27;20050;-52
2022/09/10 06:27:26;;;;;;;2.65;2.10;;;;;;;16.04;100.00;99304.25;5174047;27;20046;-53
2022/09/10 06:29:52;;;;;;;3.28;1.83;;;;;;;16.41;100.00;99284.38;5173967;27;20047;-52
2022/09/10 06:32:19;;;;;;;8.05;1.90;;;;;;;15.80;100.00;99303.09;5173791;27;20056;-54
2022/09/10 06:34:46;;;;;;;5.65;2.15;;;;;;;17.01;100.00;99290.84;5173992;27;20528;-51
2022/09/10 06:37:12;;;;;;;3.83;1.88;;;;;;;15.98;100.00;99303.06;5173762;27;20087;-53
2022/09/10 06:39:38;;;;;;;4.90;2.03;;;;;;;15.41;100.00;99258.88;5174118;27;20169;-53
2022/09/10 06:42:05;;;;;;;4.60;2.20;;;;;;;14.55;100.00;99233.91;5173709;27;20057;-52
2022/09/10 06:44:31;;;;;;;2.33;1.90;;;;;;;15.48;100.00;99245.84;5173809;27;20046;-54
2022/09/10 06:46:58;;;;;;;6.72;2.40;;;;;;;15.53;100.00;99242.69;5173441;27;20054;-53
2022/09/10 06:49:24;;;;;;;3.60;2.28;;;;;;;14.44;100.00;99220.06;5173753;27;20061;-52
2022/09/10 06:51:51;;;;;;;4.97;2.33;;;;;;;15.36;100.00;99215.88;5173287;27;20049;-52
2022/09/10 06:54:18;;;;;;;6.45;2.33;;;;;;;14.79;100.00;99233.19;5173632;27;20050;-52
2022/09/10 06:56:45;;;;;;;5.97;2.00;;;;;;;14.19;100.00;99199.88;5173253;27;20062;-52
2022/09/10 06:59:13;;;;;;;4.47;2.20;;;;;;;14.49;100.00;99227.16;5172317;27;20052;-53
2022/09/10 07:01:40;;;;;;;4.82;2.38;;;;;;;14.58;100.00;99189.00;5173124;27;20583;-52
2022/09/10 07:04:07;;;;;;;5.07;2.00;;;;;;;15.07;100.00;99204.03;5173229;27;20122;-50
2022/09/10 07:06:35;;;;;;;5.68;2.83;;;;;;;15.35;100.00;99213.50;5173298;27;20133;-52
2022/09/10 07:09:03;;;;;;;3.40;2.25;;;;;;;15.52;100.00;99230.03;5173247;27;20445;-49
2022/09/10 07:11:31;;;;;;;4.10;2.70;;;;;;;16.82;100.00;99253.34;5173223;27;20054;-52
2022/09/10 07:13:58;;;;;;;5.63;2.58;;;;;;;16.09;100.00;99273.41;5173380;27;20049;-50
2022/09/10 07:16:26;;;;;;;2.78;2.15;;;;;;;15.91;100.00;99245.81;5173072;27;20046;-50
2022/09/10 07:18:54;;;;;;;2.60;1.92;;;;;;;16.22;100.00;99259.94;5172919;27;20053;-50
2022/09/10 07:21:22;;;;;;;4.40;2.50;;;;;;;16.62;100.00;99263.34;5172977;27;20096;-50
2022/09/10 07:23:50;;;;;;;3.97;2.53;;;;;;;17.27;100.00;99269.28;5173174;27;20061;-52
2022/09/10 07:26:18;;;;;;;3.33;2.22;;;;;;;17.51;100.00;99256.44;5173180;27;20050;-50
2022/09/10 07:28:45;;;;;;;2.95;2.20;;;;;;;16.25;100.00;99267.44;5173188;27;20058;-50
2022/09/10 07:31:14;;;;;;;6.15;2.30;;;;;;;16.79;100.00;99245.06;5173068;27;20402;-51
2022/09/10 07:33:40;;;;;;;5.78;2.85;;;;;;;16.37;100.00;99252.38;5173072;27;20427;-53
2022/09/10 07:36:07;;;;;;;5.90;2.30;;;;;;;15.54;100.00;99241.50;5172980;27;20640;-50
2022/09/10 07:38:33;;;;;;;6.38;2.53;;;;;;;15.91;100.00;99215.41;5172955;27;20129;-51
2022/09/10 07:41:00;;;;;;;3.15;2.40;;;;;;;15.97;100.00;99207.50;5173144;27;20470;-50
2022/09/10 07:43:28;;;;;;;2.88;1.85;;;;;;;14.64;100.00;99176.41;5172909;27;20050;-50
2022/09/10 07:45:54;;;;;;;3.83;2.42;;;;;;;15.86;100.00;99181.84;5172909;27;20054;-51
2022/09/10 07:48:21;;;;;;;7.28;2.97;;;;;;;15.28;100.00;99172.88;5172804;27;20527;-50
2022/09/10 07:50:47;;;;;;;8.15;2.55;;;;;;;14.88;100.00;99116.88;5172758;27;20057;-50
2022/09/10 07:53:15;;;;;;;6.15;2.33;;;;;;;14.48;100.00;99105.00;5172610;27;20046;-49
2022/09/10 07:55:41;;;;;;;3.47;1.90;;;;;;;15.65;100.00;99124.63;5172653;27;20085;-50
2022/09/10 07:58:07;;;;;;;6.45;2.35;;;;;;;15.03;100.00;99098.34;5172636;27;20074;-54
2022/09/10 08:00:35;;;;;;;2.28;1.88;;;;;;;16.20;100.00;99118.50;5172584;27;20050;-50
2022/09/10 08:03:02;;;;;;;7.65;2.58;;;;;;;15.46;100.00;99117.56;5172608;27;20050;-51
2022/09/10 08:05:28;;;;;;;2.17;1.67;;;;;;;14.56;100.00;99092.03;5172303;27;20057;-53
2022/09/10 08:07:54;;;;;;;3.75;2.72;;;;;;;14.31;100.00;99050.63;5172774;27;20138;-51
2022/09/10 08:10:21;;;;;;;4.35;1.88;;;;;;;13.97;100.00;99023.41;5172003;27;20050;-51
2022/09/10 08:12:48;;;;;;;4.47;2.78;;;;;;;13.75;100.00;98980.44;5172498;27;20544;-50
2022/09/10 08:15:15;;;;;;;3.72;2.13;;;;;;;13.35;100.00;98936.28;5172310;27;20098;-49
2022/09/10 08:17:41;;;;;;;4.95;1.95;;;;;;;13.58;100.00;98927.69;5172047;27;20126;-50
2022/09/10 08:20:09;;;;;;;3.47;2.50;;;;;;;13.52;100.00;98923.72;5172346;27;20419;-54
2022/09/10 08:22:36;;;;;;;4.28;2.15;;;;;;;13.74;100.00;98921.81;5172037;27;20056;-52
2022/09/10 08:25:02;;;;;;;7.07;2.25;;;;;;;13.65;100.00;98894.63;5172352;27;20052;-50
2022/09/10 08:27:28;;;;;;;3.22;2.03;;;;;;;14.08;100.00;98904.88;5172099;27;20095;-52
2022/09/10 08:29:56;;;;;;;5.60;2.75;;;;;;;13.51;100.00;98860.78;5172140;27;20046;-49
2022/09/10 08:32:23;;;;;;;5.32;1.92;;;;;;;13.48;100.00;98865.13;5172108;27;20134;-52
2022/09/10 08:34:51;;;;;;;4.15;1.83;;;;;;;13.58;100.00;98855.28;5171965;27;20092;-52
2022/09/10 08:37:17;;;;;;;3.58;2.17;;;;;;;14.41;100.00;98859.53;5171899;27;20050;-52
2022/09/10 08:39:44;;;;;;;5.88;2.20;;;;;;;14.91;100.00;98914.59;5172274;27;20051;-51
2022/09/10 08:42:18;;;;;;;7.93;1.60;;;;;;;14.99;100.00;98927.19;5171901;27;20088;-51
2022/09/10 08:44:48;;;;;;;3.17;1.90;;;;;;;15.12;100.00;98957.91;5171913;27;20058;-52
2022/09/10 08:47:25;;;;;;;3.08;1.55;;;;;;;15.66;100.00;98971.44;5171996;27;20137;-53
2022/09/10 08:49:57;;;;;;;2.25;1.85;;;;;;;15.79;100.00;99021.56;5171878;27;20042;-54
2022/09/10 08:52:28;;;;;;;5.15;2.25;;;;;;;15.83;100.00;99001.00;5172056;27;20077;-51
2022/09/10 08:55:02;;;;;;;3.38;1.98;;;;;;;15.29;100.00;99017.81;5171907;27;20153;-53
2022/09/10 08:57:34;;;;;;;8.00;1.77;;;;;;;15.88;100.00;98988.72;5171673;27;20545;-53
2022/09/10 09:00:02;;;;;;;5.07;1.85;;;;;;;15.35;100.00;99009.09;5171468;27;20132;-51
2022/09/10 09:02:38;;;;;;;3.72;1.95;;;;;;;16.16;100.00;99023.69;5171647;27;20046;-52
2022/09/10 09:05:11;;;;;;;4.63;1.80;;;;;;;17.33;100.00;99034.91;5171611;27;20091;-53
2022/09/10 09:07:39;;;;;;;5.00;1.60;;;;;;;16.33;100.00;99058.75;5171558;27;20056;-56
2022/09/10 09:10:17;;;;;;;7.03;1.75;;;;;;;16.36;100.00;99051.59;5171771;27;20149;-51
2022/09/10 09:12:57;;;;;;;13.88;2.30;;;;;;;17.05;100.00;99061.72;5171616;27;20054;-51
2022/09/10 09:15:31;;;;;;;2.17;1.45;;;;;;;16.04;100.00;99079.47;5171674;27;20089;-53
2022/09/10 09:18:11;;;;;;;2.90;1.98;;;;;;;16.10;100.00;99028.88;5171631;27;20094;-52
2022/09/10 09:20:44;;;;;;;2.00;1.70;;;;;;;17.01;100.00;99038.03;5171426;27;20194;-54
2022/09/10 09:23:19;;;;;;;3.40;2.00;;;;;;;17.04;100.00;99065.69;5174464;27;20050;-51
2022/09/10 09:25:48;;;;;;;7.80;1.90;;;;;;;16.45;100.00;99058.25;5174943;27;20133;-53
2022/09/10 09:28:22;;;;;;;3.40;1.77;;;;;;;16.52;100.00;99051.88;5174803;27;20073;-56
2022/09/10 09:30:52;;;;;;;6.28;1.92;;;;;;;15.87;100.00;99020.34;5174936;27;20122;-52
2022/09/10 09:33:21;;;;;;;5.43;2.67;;;;;;;17.15;100.00;99046.97;5175176;27;20057;-52
2022/09/10 09:35:52;;;;;;;3.97;1.80;;;;;;;17.40;100.00;99065.31;5175026;27;20409;-55
2022/09/10 09:38:22;;;;;;;7.25;1.65;;;;;;;17.35;100.00;99066.53;5174632;27;20050;-53
2022/09/10 09:40:53;;;;;;;6.40;1.60;;;;;;;16.52;100.00;99062.94;5174853;27;20093;-50
2022/09/10 09:43:30;;;;;;;1.83;1.58;;;;;;;16.03;100.00;99014.28;5174662;27;20095;-50
2022/09/10 09:45:57;;;;;;;4.38;1.67;;;;;;;16.16;100.00;99021.72;5174701;27;20046;-52
2022/09/10 09:48:25;;;;;;;7.70;1.67;;;;;;;16.18;100.00;99026.84;5174750;27;20531;-51
2022/09/10 09:50:55;;;;;;;5.32;1.50;;;;;;;16.01;100.00;99014.72;5174853;27;20081;-52
2022/09/10 09:53:24;;;;;;;5.43;1.75;;;;;;;16.22;100.00;99020.09;5174467;27;20552;-52
2022/09/10 09:55:53;;;;;;;2.03;1.40;;;;;;;16.33;100.00;98997.13;5174467;27;20042;-52
2022/09/10 09:58:36;;;;;;;3.38;1.58;;;;;;;16.19;100.00;98993.25;5173948;27;20050;-52
2022/09/10 10:01:13;;;;;;;5.45;1.42;;;;;;;16.32;100.00;98995.53;5174481;27;20098;-53
2022/09/10 10:03:57;;;;;;;4.10;1.70;;;;;;;16.22;100.00;98995.19;5174223;27;20046;-51
2022/09/10 10:06:25;;;;;;;2.97;1.73;;;;;;;16.54;100.00;98996.91;5174047;27;20508;-50
2022/09/10 10:09:00;;;;;;;3.22;1.73;;;;;;;15.63;100.00;98984.13;5174411;27;20050;-51
2022/09/10 10:11:46;;;;;;;6.30;2.50;;;;;;;15.69;100.00;98956.84;5174148;27;20053;-50
2022/09/10 10:14:22;;;;;;;6.25;1.45;;;;;;;16.37;100.00;98968.22;5174368;27;20050;-53
2022/09/10 10:16:51;;;;;;;5.13;2.30;;;;;;;16.20;100.00;98941.50;5174088;27;20101;-52
2022/09/10 10:19:39;;;;;;;6.18;1.95;;;;;;;16.26;100.00;98984.13;5173930;27;20046;-52
2022/09/10 10:22:24;;;;;;;3.72;2.47;;;;;;;15.77;100.00;98967.47;5166405;27;20168;-51
2022/09/10 10:24:52;;;;;;;3.13;1.70;;;;;;;15.73;100.00;98983.28;5173927;27;20517;-52
2022/09/10 10:27:25;;;;;;;8.30;2.40;;;;;;;16.06;100.00;98972.00;5174257;27;20512;-53
2022/09/10 10:29:57;;;;;;;5.13;1.50;;;;;;;15.46;100.00;98982.22;5173757;27;20046;-52
2022/09/10 10:32:33;;;;;;;3.42;1.58;;;;;;;15.02;100.00;98955.97;5173877;27;20083;-53
2022/09/10 10:35:18;;;;;;;3.65;1.75;;;;;;;15.06;100.00;98938.22;5173981;27;20050;-53
2022/09/10 10:38:02;;;;;;;2.47;1.75;;;;;;;15.01;100.00;98933.09;5174111;27;20756;-54
2022/09/10 10:40:33;;;;;;;8.32;2.13;;;;;;;15.11;100.00;98916.91;5173902;27;20049;-52
2022/09/10 10:43:09;;;;;;;5.65;2.15;;;;;;;15.17;100.00;98916.06;5173795;27;20054;-51
2022/09/10 10:45:46;;;;;;;3.72;1.70;;;;;;;14.72;100.00;98899.28;5173775;27;20088;-50
2022/09/10 10:48:22;;;;;;;3.72;1.70;;;;;;;15.31;100.00;98912.47;5173598;27;20099;-54
2022/09/10 10:50:55;;;;;;;4.80;1.75;;;;;;;14.95;100.00;98892.50;5173862;27;20425;-52
2022/09/10 10:53:36;;;;;;;2.45;1.80;;;;;;;14.79;100.00;98902.03;5173564;27;20057;-53
2022/09/10 10:56:08;;;;;;;6.57;2.50;;;;;;;15.32;100.00;98872.59;5173338;27;20052;-53
2022/09/10 10:58:55;;;;;;;6.78;2.65;;;;;;;15.34;100.00;98897.06;5173785;27;20501;-52
2022/09/10 11:01:23;;;;;;;15.15;2.47;;;;;;;14.83;100.00;98886.25;5173320;27;20046;-51
2022/09/10 11:03:59;;;;;;;7.68;1.80;;;;;;;14.85;100.00;98891.34;5173335;27;20498;-54
2022/09/10 11:06:34;;;;;;;5.32;1.42;;;;;;;14.65;100.00;98888.28;5173482;27;20128;-53
2022/09/10 11:09:06;;;;;;;3.65;1.45;;;;;;;14.72;100.00;98871.69;5173274;27;20064;-54
2022/09/10 11:11:39;;;;;;;9.93;2.30;;;;;;;14.69;100.00;98877.22;5173340;27;20078;-51
2022/09/10 11:14:18;;;;;;;7.20;1.65;;;;;;;14.65;100.00;98862.66;5173150;27;20053;-50
2022/09/10 11:16:50;;;;;;;3.58;1.75;;;;;;;14.67;100.00;98865.81;5173278;27;20049;-49
2022/09/10 11:19:24;;;;;;;8.50;1.45;;;;;;;14.30;100.00;98889.13;5172992;27;20047;-52
2022/09/10 11:21:56;;;;;;;6.15;2.00;;;;;;;14.61;100.00;98846.13;5173225;27;20428;-50
2022/09/10 11:24:28;;;;;;;6.63;1.83;;;;;;;14.41;100.00;98862.31;5173270;27;20054;-51
2022/09/10 11:26:59;;;;;;;6.53;1.83;;;;;;;14.55;100.00;98851.25;5172979;27;20057;-50
2022/09/10 11:29:33;;;;;;;7.07;2.67;;;;;;;14.49;100.00;98866.59;5173246;27;20489;-53
2022/09/10 11:32:07;;;;;;;3.08;2.08;;;;;;;14.23;100.00;98831.22;5173285;27;20145;-54
2022/09/10 11:34:47;;;;;;;7.63;1.70;;;;;;;14.17;100.00;98817.06;5173175;27;20458;-52
2022/09/10 11:37:19;;;;;;;3.10;1.65;;;;;;;14.24;100.00;98827.28;5172694;27;20417;-52
2022/09/10 11:39:51;;;;;;;5.78;1.95;;;;;;;14.29;100.00;98843.41;5173137;27;20050;-51